sensor_id;sensor_type;location;lat;lon;timestamp;pressure;altitude;pressure_sealevel;temperature;humidity
10310;BME280;5200;43.236;27.986;2023-04-26T00:01:55;99059.91;;;9.83;100.00
10310;BME280;5200;43.236;27.986;2023-04-26T00:04:23;99060.75;;;9.83;100.00
10310;BME280;5200;43.236;27.986;2023-04-26T00:06:50;99011.50;;;9.59;100.00
10310;BME280;5200;43.236;27.986;2023-04-26T00:09:16;99027.19;;;9.69;100.00
10310;BME280;5200;43.236;27.986;2023-04-26T00:11:46;99023.03;;;9.66;100.00
10310;BME280;5200;43.236;27.986;2023-04-26T00:14:13;99043.78;;;9.78;100.00
10310;BME280;5200;43.236;27.986;2023-04-26T00:16:39;99022.50;;;9.81;100.00
10310;BME280;5200;43.236;27.986;2023-04-26T00:19:06;99023.44;;;9.80;100.00
10310;BME280;5200;43.236;27.986;2023-04-26T00:21:34;99047.03;;;9.98;100.00
10310;BME280;5200;43.236;27.986;2023-04-26T00:24:01;99023.59;;;9.78;100.00
10310;BME280;5200;43.236;27.986;2023-04-26T00:26:29;99051.28;;;9.90;100.00
10310;BME280;5200;43.236;27.986;2023-04-26T00:28:58;99033.47;;;9.76;100.00
10310;BME280;5200;43.236;27.986;2023-04-26T00:31:25;99026.88;;;9.72;100.00
10310;BME280;5200;43.236;27.986;2023-04-26T00:33:51;99044.16;;;9.83;100.00
10310;BME280;5200;43.236;27.986;2023-04-26T00:36:18;99026.69;;;9.73;100.00
10310;BME280;5200;43.236;27.986;2023-04-26T00:38:45;99054.03;;;9.89;100.00
10310;BME280;5200;43.236;27.986;2023-04-26T00:41:12;98995.97;;;9.66;100.00
10310;BME280;5200;43.236;27.986;2023-04-26T00:43:39;99050.34;;;10.00;100.00
10310;BME280;5200;43.236;27.986;2023-04-26T00:46:08;99044.91;;;10.01;100.00
10310;BME280;5200;43.236;27.986;2023-04-26T00:48:35;99016.72;;;9.85;100.00
10310;BME280;5200;43.236;27.986;2023-04-26T00:51:02;99014.63;;;9.89;100.00
10310;BME280;5200;43.236;27.986;2023-04-26T00:53:31;99028.97;;;10.03;100.00
10310;BME280;5200;43.236;27.986;2023-04-26T00:55:58;99009.22;;;9.90;100.00
10310;BME280;5200;43.236;27.986;2023-04-26T00:58:26;99009.03;;;9.84;100.00
10310;BME280;5200;43.236;27.986;2023-04-26T01:00:53;99023.53;;;9.96;100.00
10310;BME280;5200;43.236;27.986;2023-04-26T01:03:21;99009.22;;;9.90;100.00
10310;BME280;5200;43.236;27.986;2023-04-26T01:05:48;99044.44;;;10.06;100.00
10310;BME280;5200;43.236;27.986;2023-04-26T01:08:15;99011.84;;;9.90;100.00
10310;BME280;5200;43.236;27.986;2023-04-26T01:10:45;99040.31;;;10.03;100.00
10310;BME280;5200;43.236;27.986;2023-04-26T01:13:13;99022.03;;;9.93;100.00
10310;BME280;5200;43.236;27.986;2023-04-26T01:15:42;99002.78;;;9.85;100.00
10310;BME280;5200;43.236;27.986;2023-04-26T01:18:10;99026.00;;;9.98;100.00
10310;BME280;5200;43.236;27.986;2023-04-26T01:20:39;99007.88;;;9.86;100.00
10310;BME280;5200;43.236;27.986;2023-04-26T01:23:09;99009.53;;;9.87;100.00
10310;BME280;5200;43.236;27.986;2023-04-26T01:25:35;99031.75;;;10.01;100.00
10310;BME280;5200;43.236;27.986;2023-04-26T01:28:02;99035.06;;;10.03;100.00
10310;BME280;5200;43.236;27.986;2023-04-26T01:30:29;99034.09;;;10.04;100.00
10310;BME280;5200;43.236;27.986;2023-04-26T01:32:56;99034.59;;;10.08;100.00
10310;BME280;5200;43.236;27.986;2023-04-26T01:35:23;99029.47;;;10.06;100.00
10310;BME280;5200;43.236;27.986;2023-04-26T01:37:50;99034.13;;;10.12;100.00
10310;BME280;5200;43.236;27.986;2023-04-26T01:40:18;99008.78;;;10.03;100.00
10310;BME280;5200;43.236;27.986;2023-04-26T01:42:44;99027.72;;;10.15;100.00
10310;BME280;5200;43.236;27.986;2023-04-26T01:45:11;99023.13;;;10.17;100.00
10310;BME280;5200;43.236;27.986;2023-04-26T01:47:38;99020.34;;;10.19;100.00
10310;BME280;5200;43.236;27.986;2023-04-26T01:50:06;99022.13;;;10.18;100.00
10310;BME280;5200;43.236;27.986;2023-04-26T01:52:33;99019.16;;;10.13;100.00
10310;BME280;5200;43.236;27.986;2023-04-26T01:55:00;99020.31;;;10.10;100.00
10310;BME280;5200;43.236;27.986;2023-04-26T01:57:28;99019.97;;;10.13;100.00
10310;BME280;5200;43.236;27.986;2023-04-26T01:59:55;99016.53;;;10.13;100.00
10310;BME280;5200;43.236;27.986;2023-04-26T02:02:23;99021.78;;;10.13;100.00
10310;BME280;5200;43.236;27.986;2023-04-26T02:04:50;99015.25;;;10.17;100.00
10310;BME280;5200;43.236;27.986;2023-04-26T02:07:17;99017.72;;;10.19;100.00
10310;BME280;5200;43.236;27.986;2023-04-26T02:09:44;99023.78;;;10.19;100.00
10310;BME280;5200;43.236;27.986;2023-04-26T02:12:11;99014.09;;;10.20;100.00
10310;BME280;5200;43.236;27.986;2023-04-26T02:14:39;99014.09;;;10.20;100.00
10310;BME280;5200;43.236;27.986;2023-04-26T02:17:06;99015.44;;;10.24;100.00
10310;BME280;5200;43.236;27.986;2023-04-26T02:19:33;99018.53;;;10.19;100.00
10310;BME280;5200;43.236;27.986;2023-04-26T02:22:00;99004.19;;;10.05;100.00
10310;BME280;5200;43.236;27.986;2023-04-26T02:24:26;99017.34;;;10.13;100.00
10310;BME280;5200;43.236;27.986;2023-04-26T02:26:54;99008.44;;;10.06;100.00
10310;BME280;5200;43.236;27.986;2023-04-26T02:29:24;99019.63;;;10.08;100.00
10310;BME280;5200;43.236;27.986;2023-04-26T02:31:53;99022.59;;;10.05;100.00
10310;BME280;5200;43.236;27.986;2023-04-26T02:34:19;99021.78;;;10.05;100.00
10310;BME280;5200;43.236;27.986;2023-04-26T02:36:46;99011.56;;;10.02;100.00
10310;BME280;5200;43.236;27.986;2023-04-26T02:39:13;98991.78;;;9.81;100.00
10310;BME280;5200;43.236;27.986;2023-04-26T02:41:41;99014.16;;;9.93;100.00
10310;BME280;5200;43.236;27.986;2023-04-26T02:44:08;99025.19;;;9.97;100.00
10310;BME280;5200;43.236;27.986;2023-04-26T02:46:34;99016.00;;;10.01;100.00
10310;BME280;5200;43.236;27.986;2023-04-26T02:49:03;99012.41;;;10.02;100.00
10310;BME280;5200;43.236;27.986;2023-04-26T02:51:30;99010.13;;;10.07;100.00
10310;BME280;5200;43.236;27.986;2023-04-26T02:53:57;99005.81;;;10.06;100.00
10310;BME280;5200;43.236;27.986;2023-04-26T02:56:24;98980.81;;;9.86;100.00
10310;BME280;5200;43.236;27.986;2023-04-26T02:58:51;99017.34;;;10.05;100.00
10310;BME280;5200;43.236;27.986;2023-04-26T03:01:18;99007.16;;;10.02;100.00
10310;BME280;5200;43.236;27.986;2023-04-26T03:03:45;99001.03;;;9.93;100.00
10310;BME280;5200;43.236;27.986;2023-04-26T03:06:13;98977.84;;;9.81;100.00
10310;BME280;5200;43.236;27.986;2023-04-26T03:08:40;98981.41;;;9.80;100.00
10310;BME280;5200;43.236;27.986;2023-04-26T03:11:07;99011.06;;;9.98;100.00
10310;BME280;5200;43.236;27.986;2023-04-26T03:13:34;99005.66;;;10.00;100.00
10310;BME280;5200;43.236;27.986;2023-04-26T03:16:00;98996.28;;;9.97;100.00
10310;BME280;5200;43.236;27.986;2023-04-26T03:18:27;98996.63;;;10.02;100.00
10310;BME280;5200;43.236;27.986;2023-04-26T03:20:54;98968.34;;;9.88;100.00
10310;BME280;5200;43.236;27.986;2023-04-26T03:23:22;98995.97;;;10.08;100.00
10310;BME280;5200;43.236;27.986;2023-04-26T03:25:49;99004.38;;;10.12;100.00
10310;BME280;5200;43.236;27.986;2023-04-26T03:28:16;99000.59;;;10.14;100.00
10310;BME280;5200;43.236;27.986;2023-04-26T03:30:43;98996.97;;;10.15;100.00
10310;BME280;5200;43.236;27.986;2023-04-26T03:33:11;98972.81;;;10.04;100.00
10310;BME280;5200;43.236;27.986;2023-04-26T03:35:38;99007.59;;;10.32;100.00
10310;BME280;5200;43.236;27.986;2023-04-26T03:38:05;99004.28;;;10.30;100.00
10310;BME280;5200;43.236;27.986;2023-04-26T03:40:33;98977.28;;;10.20;100.00
10310;BME280;5200;43.236;27.986;2023-04-26T03:43:00;98999.06;;;10.46;100.00
10310;BME280;5200;43.236;27.986;2023-04-26T03:45:27;98973.44;;;10.40;100.00
10310;BME280;5200;43.236;27.986;2023-04-26T03:47:54;98986.59;;;10.48;100.00
10310;BME280;5200;43.236;27.986;2023-04-26T03:50:21;99020.50;;;10.68;100.00
10310;BME280;5200;43.236;27.986;2023-04-26T03:52:48;99015.53;;;10.65;100.00
10310;BME280;5200;43.236;27.986;2023-04-26T03:55:15;98965.06;;;10.45;100.00
10310;BME280;5200;43.236;27.986;2023-04-26T03:57:43;98983.50;;;10.61;100.00
10310;BME280;5200;43.236;27.986;2023-04-26T04:00:11;98985.63;;;10.74;100.00
10310;BME280;5200;43.236;27.986;2023-04-26T04:02:39;99015.09;;;11.02;100.00
10310;BME280;5200;43.236;27.986;2023-04-26T04:05:07;99013.91;;;11.21;100.00
10310;BME280;5200;43.236;27.986;2023-04-26T04:07:34;98989.09;;;11.15;100.00
10310;BME280;5200;43.236;27.986;2023-04-26T04:10:01;98990.72;;;11.16;100.00
10310;BME280;5200;43.236;27.986;2023-04-26T04:12:28;99025.09;;;11.48;100.00
10310;BME280;5200;43.236;27.986;2023-04-26T04:14:56;99017.16;;;11.56;100.00
10310;BME280;5200;43.236;27.986;2023-04-26T04:17:23;99022.41;;;11.72;100.00
10310;BME280;5200;43.236;27.986;2023-04-26T04:19:50;98999.81;;;11.78;100.00
10310;BME280;5200;43.236;27.986;2023-04-26T04:22:17;99020.16;;;12.09;100.00
10310;BME280;5200;43.236;27.986;2023-04-26T04:24:44;99000.88;;;12.08;100.00
10310;BME280;5200;43.236;27.986;2023-04-26T04:27:11;99018.88;;;12.36;100.00
10310;BME280;5200;43.236;27.986;2023-04-26T04:29:39;99020.31;;;12.46;100.00
10310;BME280;5200;43.236;27.986;2023-04-26T04:32:08;99004.00;;;12.43;100.00
10310;BME280;5200;43.236;27.986;2023-04-26T04:34:35;99006.25;;;12.54;100.00
10310;BME280;5200;43.236;27.986;2023-04-26T04:37:02;99003.31;;;12.72;100.00
10310;BME280;5200;43.236;27.986;2023-04-26T04:39:29;99015.28;;;12.83;100.00
10310;BME280;5200;43.236;27.986;2023-04-26T04:41:56;99006.31;;;12.92;100.00
10310;BME280;5200;43.236;27.986;2023-04-26T04:44:24;99002.50;;;12.95;100.00
10310;BME280;5200;43.236;27.986;2023-04-26T04:46:51;99036.28;;;13.22;100.00
10310;BME280;5200;43.236;27.986;2023-04-26T04:49:20;99028.56;;;13.36;100.00
10310;BME280;5200;43.236;27.986;2023-04-26T04:51:49;98996.44;;;13.24;100.00
10310;BME280;5200;43.236;27.986;2023-04-26T04:54:16;99017.59;;;13.62;100.00
10310;BME280;5200;43.236;27.986;2023-04-26T04:56:43;99000.09;;;13.61;100.00
10310;BME280;5200;43.236;27.986;2023-04-26T04:59:10;99017.31;;;13.86;100.00
10310;BME280;5200;43.236;27.986;2023-04-26T05:01:37;98996.06;;;13.80;100.00
10310;BME280;5200;43.236;27.986;2023-04-26T05:04:05;98997.91;;;14.09;100.00
10310;BME280;5200;43.236;27.986;2023-04-26T05:06:33;98991.38;;;14.26;100.00
10310;BME280;5200;43.236;27.986;2023-04-26T05:09:00;99010.94;;;14.47;100.00
10310;BME280;5200;43.236;27.986;2023-04-26T05:11:27;99026.25;;;14.66;100.00
10310;BME280;5200;43.236;27.986;2023-04-26T05:13:54;99021.03;;;14.73;100.00
10310;BME280;5200;43.236;27.986;2023-04-26T05:16:20;99034.97;;;14.82;100.00
10310;BME280;5200;43.236;27.986;2023-04-26T05:18:47;99034.34;;;14.79;100.00
10310;BME280;5200;43.236;27.986;2023-04-26T05:21:14;99012.19;;;14.66;100.00
10310;BME280;5200;43.236;27.986;2023-04-26T05:23:42;99036.50;;;14.54;100.00
10310;BME280;5200;43.236;27.986;2023-04-26T05:26:15;99030.13;;;14.34;100.00
10310;BME280;5200;43.236;27.986;2023-04-26T05:28:42;99032.97;;;14.32;100.00
10310;BME280;5200;43.236;27.986;2023-04-26T05:31:09;99006.53;;;14.17;100.00
10310;BME280;5200;43.236;27.986;2023-04-26T05:33:36;99010.00;;;14.18;100.00
10310;BME280;5200;43.236;27.986;2023-04-26T05:36:03;99011.38;;;14.14;100.00
10310;BME280;5200;43.236;27.986;2023-04-26T05:38:30;99034.25;;;14.22;100.00
10310;BME280;5200;43.236;27.986;2023-04-26T05:40:59;99032.63;;;14.06;100.00
10310;BME280;5200;43.236;27.986;2023-04-26T05:43:25;99034.56;;;13.97;100.00
10310;BME280;5200;43.236;27.986;2023-04-26T05:45:53;99035.94;;;13.93;100.00
10310;BME280;5200;43.236;27.986;2023-04-26T05:48:20;99007.75;;;13.56;100.00
10310;BME280;5200;43.236;27.986;2023-04-26T05:50:47;99022.25;;;13.60;100.00
10310;BME280;5200;43.236;27.986;2023-04-26T05:53:15;99037.72;;;13.63;100.00
10310;BME280;5200;43.236;27.986;2023-04-26T05:55:42;99007.38;;;13.44;100.00
10310;BME280;5200;43.236;27.986;2023-04-26T05:58:10;99019.94;;;13.42;100.00
10310;BME280;5200;43.236;27.986;2023-04-26T06:00:37;99024.66;;;13.31;100.00
10310;BME280;5200;43.236;27.986;2023-04-26T06:03:05;99043.53;;;13.43;100.00
10310;BME280;5200;43.236;27.986;2023-04-26T06:05:32;99027.47;;;13.30;100.00
10310;BME280;5200;43.236;27.986;2023-04-26T06:07:58;99043.31;;;13.30;100.00
10310;BME280;5200;43.236;27.986;2023-04-26T06:10:26;99037.09;;;13.23;100.00
10310;BME280;5200;43.236;27.986;2023-04-26T06:12:53;99048.00;;;13.20;100.00
10310;BME280;5200;43.236;27.986;2023-04-26T06:15:21;99053.19;;;13.13;100.00
10310;BME280;5200;43.236;27.986;2023-04-26T06:17:47;99034.53;;;12.92;100.00
10310;BME280;5200;43.236;27.986;2023-04-26T06:20:14;99062.13;;;12.89;100.00
10310;BME280;5200;43.236;27.986;2023-04-26T06:22:41;99067.59;;;12.79;100.00
10310;BME280;5200;43.236;27.986;2023-04-26T06:25:08;99037.25;;;12.52;100.00
10310;BME280;5200;43.236;27.986;2023-04-26T06:27:35;99054.34;;;12.64;100.00
10310;BME280;5200;43.236;27.986;2023-04-26T06:30:04;99037.78;;;12.47;100.00
10310;BME280;5200;43.236;27.986;2023-04-26T06:32:33;99052.13;;;12.45;100.00
10310;BME280;5200;43.236;27.986;2023-04-26T06:35:00;99056.47;;;12.38;100.00
10310;BME280;5200;43.236;27.986;2023-04-26T06:37:27;99046.97;;;12.20;100.00
10310;BME280;5200;43.236;27.986;2023-04-26T06:39:54;99066.22;;;12.29;100.00
10310;BME280;5200;43.236;27.986;2023-04-26T06:42:21;99065.88;;;12.32;100.00
10310;BME280;5200;43.236;27.986;2023-04-26T06:44:48;99056.84;;;12.26;100.00
10310;BME280;5200;43.236;27.986;2023-04-26T06:47:15;99067.75;;;12.23;100.00
10310;BME280;5200;43.236;27.986;2023-04-26T06:49:43;99077.28;;;12.24;100.00
10310;BME280;5200;43.236;27.986;2023-04-26T06:52:09;99039.00;;;11.97;100.00
10310;BME280;5200;43.236;27.986;2023-04-26T06:54:36;99076.31;;;12.25;100.00
10310;BME280;5200;43.236;27.986;2023-04-26T06:57:03;99080.72;;;12.33;100.00
10310;BME280;5200;43.236;27.986;2023-04-26T06:59:30;99069.16;;;12.34;100.00
10310;BME280;5200;43.236;27.986;2023-04-26T07:01:57;99079.31;;;12.54;100.00
10310;BME280;5200;43.236;27.986;2023-04-26T07:04:25;99063.13;;;12.57;100.00
10310;BME280;5200;43.236;27.986;2023-04-26T07:06:53;99066.34;;;12.67;100.00
10310;BME280;5200;43.236;27.986;2023-04-26T07:09:20;99088.59;;;12.96;100.00
10310;BME280;5200;43.236;27.986;2023-04-26T07:11:48;99091.66;;;13.07;100.00
10310;BME280;5200;43.236;27.986;2023-04-26T07:14:15;99066.03;;;12.93;100.00
10310;BME280;5200;43.236;27.986;2023-04-26T07:16:43;99091.53;;;13.24;100.00
10310;BME280;5200;43.236;27.986;2023-04-26T07:19:10;99069.91;;;13.05;100.00
10310;BME280;5200;43.236;27.986;2023-04-26T07:21:37;99060.41;;;12.96;100.00
10310;BME280;5200;43.236;27.986;2023-04-26T07:24:05;99075.47;;;13.10;100.00
10310;BME280;5200;43.236;27.986;2023-04-26T07:26:34;99057.56;;;13.21;100.00
10310;BME280;5200;43.236;27.986;2023-04-26T07:29:01;99052.25;;;13.29;100.00
10310;BME280;5200;43.236;27.986;2023-04-26T07:31:29;99040.63;;;13.38;100.00
10310;BME280;5200;43.236;27.986;2023-04-26T07:33:57;99048.69;;;13.60;100.00
10310;BME280;5200;43.236;27.986;2023-04-26T07:36:24;99065.94;;;13.85;100.00
10310;BME280;5200;43.236;27.986;2023-04-26T07:38:52;99062.63;;;13.98;100.00
10310;BME280;5200;43.236;27.986;2023-04-26T07:41:20;99082.59;;;14.30;100.00
10310;BME280;5200;43.236;27.986;2023-04-26T07:43:47;99081.38;;;14.48;100.00
10310;BME280;5200;43.236;27.986;2023-04-26T07:46:14;99086.41;;;14.72;100.00
10310;BME280;5200;43.236;27.986;2023-04-26T07:48:40;99085.84;;;14.98;100.00
10310;BME280;5200;43.236;27.986;2023-04-26T07:51:08;99065.41;;;15.14;100.00
10310;BME280;5200;43.236;27.986;2023-04-26T07:53:35;99069.44;;;15.31;100.00
10310;BME280;5200;43.236;27.986;2023-04-26T07:56:04;99062.72;;;15.57;100.00
10310;BME280;5200;43.236;27.986;2023-04-26T07:58:33;99077.19;;;15.82;100.00
10310;BME280;5200;43.236;27.986;2023-04-26T08:01:00;99086.66;;;15.98;100.00
10310;BME280;5200;43.236;27.986;2023-04-26T08:03:28;99084.72;;;16.14;100.00
10310;BME280;5200;43.236;27.986;2023-04-26T08:05:55;99094.53;;;16.20;100.00
10310;BME280;5200;43.236;27.986;2023-04-26T08:08:24;99071.97;;;16.37;100.00
10310;BME280;5200;43.236;27.986;2023-04-26T08:10:51;99091.94;;;16.75;100.00
10310;BME280;5200;43.236;27.986;2023-04-26T08:13:18;99091.59;;;16.98;100.00
10310;BME280;5200;43.236;27.986;2023-04-26T08:15:47;99089.56;;;17.00;100.00
10310;BME280;5200;43.236;27.986;2023-04-26T08:18:14;99066.63;;;16.85;100.00
10310;BME280;5200;43.236;27.986;2023-04-26T08:20:41;99081.34;;;16.88;100.00
10310;BME280;5200;43.236;27.986;2023-04-26T08:23:08;99071.03;;;16.58;100.00
10310;BME280;5200;43.236;27.986;2023-04-26T08:25:34;99098.75;;;16.42;100.00
10310;BME280;5200;43.236;27.986;2023-04-26T08:28:01;99103.41;;;16.34;100.00
10310;BME280;5200;43.236;27.986;2023-04-26T08:30:28;99099.53;;;16.36;100.00
10310;BME280;5200;43.236;27.986;2023-04-26T08:32:57;99093.00;;;16.32;100.00
10310;BME280;5200;43.236;27.986;2023-04-26T08:35:24;99097.91;;;16.35;100.00
10310;BME280;5200;43.236;27.986;2023-04-26T08:37:51;99090.97;;;16.41;100.00
10310;BME280;5200;43.236;27.986;2023-04-26T08:40:21;99096.25;;;16.34;100.00
10310;BME280;5200;43.236;27.986;2023-04-26T08:42:49;99075.69;;;16.08;100.00
10310;BME280;5200;43.236;27.986;2023-04-26T08:45:18;99078.13;;;16.03;100.00
10310;BME280;5200;43.236;27.986;2023-04-26T08:47:47;99100.91;;;15.91;100.00
10310;BME280;5200;43.236;27.986;2023-04-26T08:50:19;99098.47;;;15.68;100.00
10310;BME280;5200;43.236;27.986;2023-04-26T08:52:47;99099.38;;;15.75;100.00
10310;BME280;5200;43.236;27.986;2023-04-26T08:55:15;99106.44;;;15.68;100.00
10310;BME280;5200;43.236;27.986;2023-04-26T08:57:44;99112.41;;;15.48;100.00
10310;BME280;5200;43.236;27.986;2023-04-26T09:00:12;99109.06;;;15.39;100.00
10310;BME280;5200;43.236;27.986;2023-04-26T09:02:41;99108.09;;;15.26;100.00
10310;BME280;5200;43.236;27.986;2023-04-26T09:05:09;99098.16;;;15.06;100.00
10310;BME280;5200;43.236;27.986;2023-04-26T09:07:40;99083.44;;;14.82;100.00
10310;BME280;5200;43.236;27.986;2023-04-26T09:10:08;99116.28;;;14.88;100.00
10310;BME280;5200;43.236;27.986;2023-04-26T09:12:35;99087.13;;;14.66;100.00
10310;BME280;5200;43.236;27.986;2023-04-26T09:15:02;99103.53;;;14.76;100.00
10310;BME280;5200;43.236;27.986;2023-04-26T09:17:30;99104.63;;;14.82;100.00
10310;BME280;5200;43.236;27.986;2023-04-26T09:19:58;99088.84;;;14.74;100.00
10310;BME280;5200;43.236;27.986;2023-04-26T09:22:30;99111.56;;;14.83;100.00
10310;BME280;5200;43.236;27.986;2023-04-26T09:24:59;99107.75;;;14.71;100.00
10310;BME280;5200;43.236;27.986;2023-04-26T09:27:37;99088.25;;;14.57;100.00
10310;BME280;5200;43.236;27.986;2023-04-26T09:30:06;99113.88;;;14.71;100.00
10310;BME280;5200;43.236;27.986;2023-04-26T09:32:46;99111.13;;;14.65;100.00
10310;BME280;5200;43.236;27.986;2023-04-26T09:35:25;99114.06;;;14.55;100.00
10310;BME280;5200;43.236;27.986;2023-04-26T09:37:54;99119.44;;;14.47;100.00
10310;BME280;5200;43.236;27.986;2023-04-26T09:40:25;99092.00;;;14.33;100.00
10310;BME280;5200;43.236;27.986;2023-04-26T09:42:57;99080.78;;;14.16;100.00
10310;BME280;5200;43.236;27.986;2023-04-26T09:45:24;99093.00;;;14.17;100.00
10310;BME280;5200;43.236;27.986;2023-04-26T09:47:52;99087.81;;;14.09;100.00
10310;BME280;5200;43.236;27.986;2023-04-26T09:50:27;99103.59;;;14.17;100.00
10310;BME280;5200;43.236;27.986;2023-04-26T09:52:54;99108.50;;;14.20;100.00
10310;BME280;5200;43.236;27.986;2023-04-26T09:55:29;99103.75;;;14.15;100.00
10310;BME280;5200;43.236;27.986;2023-04-26T09:57:56;99108.59;;;14.12;100.00
10310;BME280;5200;43.236;27.986;2023-04-26T10:00:25;99101.38;;;14.06;100.00
10310;BME280;5200;43.236;27.986;2023-04-26T10:02:53;99087.25;;;13.99;100.00
10310;BME280;5200;43.236;27.986;2023-04-26T10:05:21;99107.16;;;14.09;100.00
10310;BME280;5200;43.236;27.986;2023-04-26T10:07:49;99104.69;;;14.08;100.00
10310;BME280;5200;43.236;27.986;2023-04-26T10:10:17;99107.06;;;14.03;100.00
10310;BME280;5200;43.236;27.986;2023-04-26T10:12:46;99107.69;;;14.05;100.00
10310;BME280;5200;43.236;27.986;2023-04-26T10:15:14;99109.97;;;14.08;100.00
10310;BME280;5200;43.236;27.986;2023-04-26T10:17:41;99097.56;;;14.23;100.00
10310;BME280;5200;43.236;27.986;2023-04-26T10:20:11;99108.78;;;14.25;100.00
10310;BME280;5200;43.236;27.986;2023-04-26T10:22:43;99077.50;;;14.14;100.00
10310;BME280;5200;43.236;27.986;2023-04-26T10:25:11;99065.34;;;14.20;100.00
10310;BME280;5200;43.236;27.986;2023-04-26T10:27:51;99075.91;;;14.34;100.00
10310;BME280;5200;43.236;27.986;2023-04-26T10:30:20;99084.84;;;14.48;100.00
10310;BME280;5200;43.236;27.986;2023-04-26T10:33:10;99096.81;;;14.44;100.00
10310;BME280;5200;43.236;27.986;2023-04-26T10:35:58;99085.25;;;14.30;100.00
10310;BME280;5200;43.236;27.986;2023-04-26T10:38:26;99077.31;;;14.30;100.00
10310;BME280;5200;43.236;27.986;2023-04-26T10:40:53;99093.06;;;14.53;100.00
10310;BME280;5200;43.236;27.986;2023-04-26T10:43:30;99047.75;;;14.42;100.00
10310;BME280;5200;43.236;27.986;2023-04-26T10:46:33;99087.28;;;14.79;100.00
10310;BME280;5200;43.236;27.986;2023-04-26T10:49:12;99089.66;;;14.74;100.00
10310;BME280;5200;43.236;27.986;2023-04-26T10:51:39;99099.88;;;14.77;100.00
10310;BME280;5200;43.236;27.986;2023-04-26T10:54:06;99099.25;;;14.75;100.00
10310;BME280;5200;43.236;27.986;2023-04-26T10:56:51;99096.31;;;14.85;100.00
10310;BME280;5200;43.236;27.986;2023-04-26T10:59:20;99095.00;;;15.17;100.00
10310;BME280;5200;43.236;27.986;2023-04-26T11:01:47;99094.75;;;15.34;100.00
10310;BME280;5200;43.236;27.986;2023-04-26T11:04:14;99091.13;;;15.41;100.00
10310;BME280;5200;43.236;27.986;2023-04-26T11:06:48;99096.38;;;15.35;100.00
10310;BME280;5200;43.236;27.986;2023-04-26T11:09:35;99095.97;;;15.38;100.00
10310;BME280;5200;43.236;27.986;2023-04-26T11:12:06;99101.41;;;15.51;100.00
10310;BME280;5200;43.236;27.986;2023-04-26T11:14:38;99099.88;;;15.63;100.00
10310;BME280;5200;43.236;27.986;2023-04-26T11:17:06;99094.94;;;15.82;100.00
10310;BME280;5200;43.236;27.986;2023-04-26T11:19:33;99068.19;;;15.77;100.00
10310;BME280;5200;43.236;27.986;2023-04-26T11:22:01;99096.28;;;15.99;100.00
10310;BME280;5200;43.236;27.986;2023-04-26T11:24:30;99079.28;;;15.94;100.00
10310;BME280;5200;43.236;27.986;2023-04-26T11:26:57;99098.63;;;16.16;100.00
10310;BME280;5200;43.236;27.986;2023-04-26T11:29:24;99074.88;;;16.08;100.00
10310;BME280;5200;43.236;27.986;2023-04-26T11:31:54;99098.31;;;16.32;100.00
10310;BME280;5200;43.236;27.986;2023-04-26T11:34:21;99098.69;;;16.29;100.00
10310;BME280;5200;43.236;27.986;2023-04-26T11:36:50;99074.34;;;16.19;100.00
10310;BME280;5200;43.236;27.986;2023-04-26T11:39:21;99059.69;;;16.30;100.00
10310;BME280;5200;43.236;27.986;2023-04-26T11:41:48;99089.03;;;16.69;100.00
10310;BME280;5200;43.236;27.986;2023-04-26T11:44:18;99091.00;;;17.09;100.00
10310;BME280;5200;43.236;27.986;2023-04-26T11:46:46;99057.69;;;17.40;100.00
10310;BME280;5200;43.236;27.986;2023-04-26T11:49:15;99058.94;;;17.50;100.00
10310;BME280;5200;43.236;27.986;2023-04-26T11:51:45;99079.75;;;17.80;100.00
10310;BME280;5200;43.236;27.986;2023-04-26T11:54:26;99068.53;;;17.71;100.00
10310;BME280;5200;43.236;27.986;2023-04-26T11:56:54;99080.81;;;17.86;100.00
10310;BME280;5200;43.236;27.986;2023-04-26T11:59:24;99078.34;;;17.84;100.00
10310;BME280;5200;43.236;27.986;2023-04-26T12:01:51;99060.13;;;17.74;100.00
10310;BME280;5200;43.236;27.986;2023-04-26T12:04:26;99077.72;;;17.89;100.00
10310;BME280;5200;43.236;27.986;2023-04-26T12:06:54;99080.97;;;17.78;100.00
10310;BME280;5200;43.236;27.986;2023-04-26T12:09:22;99082.66;;;17.52;100.00
10310;BME280;5200;43.236;27.986;2023-04-26T12:11:52;99078.16;;;17.32;100.00
10310;BME280;5200;43.236;27.986;2023-04-26T12:14:22;99083.03;;;17.16;100.00
10310;BME280;5200;43.236;27.986;2023-04-26T12:16:48;99084.03;;;16.95;100.00
10310;BME280;5200;43.236;27.986;2023-04-26T12:19:15;99084.53;;;16.63;100.00
10310;BME280;5200;43.236;27.986;2023-04-26T12:21:44;99083.59;;;16.36;100.00
10310;BME280;5200;43.236;27.986;2023-04-26T12:24:21;99092.88;;;16.12;100.00
10310;BME280;5200;43.236;27.986;2023-04-26T12:26:48;99090.75;;;16.01;100.00
10310;BME280;5200;43.236;27.986;2023-04-26T12:29:15;99095.22;;;15.94;100.00
10310;BME280;5200;43.236;27.986;2023-04-26T12:31:42;99085.47;;;15.73;100.00
10310;BME280;5200;43.236;27.986;2023-04-26T12:34:08;99084.75;;;15.57;100.00
10310;BME280;5200;43.236;27.986;2023-04-26T12:36:35;99093.09;;;15.33;100.00
10310;BME280;5200;43.236;27.986;2023-04-26T12:39:03;99085.28;;;15.25;100.00
10310;BME280;5200;43.236;27.986;2023-04-26T12:41:31;99082.75;;;15.16;100.00
10310;BME280;5200;43.236;27.986;2023-04-26T12:43:58;99099.28;;;15.18;100.00
10310;BME280;5200;43.236;27.986;2023-04-26T12:46:25;99075.69;;;15.02;100.00
10310;BME280;5200;43.236;27.986;2023-04-26T12:48:52;99097.00;;;15.15;100.00
10310;BME280;5200;43.236;27.986;2023-04-26T12:51:19;99088.28;;;15.00;100.00
10310;BME280;5200;43.236;27.986;2023-04-26T12:53:46;99080.91;;;14.95;100.00
10310;BME280;5200;43.236;27.986;2023-04-26T12:56:14;99085.53;;;14.87;100.00